sensor_id;sensor_type;location;lat;lon;timestamp;P1;durP1;ratioP1;P2;durP2;ratioP2
9080;SDS011;13509;50.760;6.080;2022-10-16T00:01:34;3.93;;;1.60;;
9080;SDS011;13509;50.760;6.080;2022-10-16T00:04:03;1.60;;;1.50;;
9080;SDS011;13509;50.760;6.080;2022-10-16T00:06:31;1.40;;;1.30;;
9080;SDS011;13509;50.760;6.080;2022-10-16T00:09:01;1.67;;;1.30;;
9080;SDS011;13509;50.760;6.080;2022-10-16T00:11:30;3.00;;;1.30;;
9080;SDS011;13509;50.760;6.080;2022-10-16T00:14:00;1.93;;;1.63;;
9080;SDS011;13509;50.760;6.080;2022-10-16T00:16:28;2.83;;;1.47;;
9080;SDS011;13509;50.760;6.080;2022-10-16T00:18:57;1.47;;;1.30;;
9080;SDS011;13509;50.760;6.080;2022-10-16T00:21:25;4.97;;;1.37;;
9080;SDS011;13509;50.760;6.080;2022-10-16T00:23:54;1.83;;;1.20;;
9080;SDS011;13509;50.760;6.080;2022-10-16T00:26:24;2.30;;;1.20;;
9080;SDS011;13509;50.760;6.080;2022-10-16T00:28:53;1.53;;;1.00;;
9080;SDS011;13509;50.760;6.080;2022-10-16T00:31:22;3.80;;;1.23;;
9080;SDS011;13509;50.760;6.080;2022-10-16T00:33:50;1.30;;;1.20;;
9080;SDS011;13509;50.760;6.080;2022-10-16T00:36:20;2.33;;;1.20;;
9080;SDS011;13509;50.760;6.080;2022-10-16T00:38:50;2.53;;;1.13;;
9080;SDS011;13509;50.760;6.080;2022-10-16T00:41:21;3.10;;;1.20;;
9080;SDS011;13509;50.760;6.080;2022-10-16T00:43:52;1.83;;;1.03;;
9080;SDS011;13509;50.760;6.080;2022-10-16T00:46:21;2.33;;;1.00;;
9080;SDS011;13509;50.760;6.080;2022-10-16T00:48:52;1.90;;;1.00;;
9080;SDS011;13509;50.760;6.080;2022-10-16T00:51:21;1.80;;;1.07;;
9080;SDS011;13509;50.760;6.080;2022-10-16T00:53:50;1.87;;;1.10;;
9080;SDS011;13509;50.760;6.080;2022-10-16T00:56:19;3.40;;;1.00;;
9080;SDS011;13509;50.760;6.080;2022-10-16T00:58:47;0.90;;;0.90;;
9080;SDS011;13509;50.760;6.080;2022-10-16T01:01:17;4.00;;;1.17;;
9080;SDS011;13509;50.760;6.080;2022-10-16T01:03:45;1.43;;;1.27;;
9080;SDS011;13509;50.760;6.080;2022-10-16T01:06:22;0.90;;;0.90;;
9080;SDS011;13509;50.760;6.080;2022-10-16T01:09:08;1.30;;;1.20;;
9080;SDS011;13509;50.760;6.080;2022-10-16T01:11:41;1.20;;;1.10;;
9080;SDS011;13509;50.760;6.080;2022-10-16T01:14:14;1.20;;;1.10;;
9080;SDS011;13509;50.760;6.080;2022-10-16T01:16:46;2.93;;;1.47;;
9080;SDS011;13509;50.760;6.080;2022-10-16T01:19:17;1.00;;;1.00;;
9080;SDS011;13509;50.760;6.080;2022-10-16T01:21:48;0.90;;;0.90;;
9080;SDS011;13509;50.760;6.080;2022-10-16T01:24:22;3.03;;;0.97;;
9080;SDS011;13509;50.760;6.080;2022-10-16T01:27:02;2.20;;;1.20;;
9080;SDS011;13509;50.760;6.080;2022-10-16T01:29:32;1.20;;;0.80;;
9080;SDS011;13509;50.760;6.080;2022-10-16T01:32:05;0.90;;;0.90;;
9080;SDS011;13509;50.760;6.080;2022-10-16T01:34:37;0.90;;;0.90;;
9080;SDS011;13509;50.760;6.080;2022-10-16T01:37:08;6.53;;;1.10;;
9080;SDS011;13509;50.760;6.080;2022-10-16T01:39:38;1.40;;;0.80;;
9080;SDS011;13509;50.760;6.080;2022-10-16T01:42:09;0.83;;;0.83;;
9080;SDS011;13509;50.760;6.080;2022-10-16T01:44:39;1.50;;;0.90;;
9080;SDS011;13509;50.760;6.080;2022-10-16T01:47:08;0.77;;;0.77;;
9080;SDS011;13509;50.760;6.080;2022-10-16T01:49:38;3.07;;;1.00;;
9080;SDS011;13509;50.760;6.080;2022-10-16T01:52:08;1.00;;;0.80;;
9080;SDS011;13509;50.760;6.080;2022-10-16T01:54:37;1.17;;;0.90;;
9080;SDS011;13509;50.760;6.080;2022-10-16T01:57:07;0.97;;;0.97;;
9080;SDS011;13509;50.760;6.080;2022-10-16T01:59:38;1.63;;;1.10;;
9080;SDS011;13509;50.760;6.080;2022-10-16T02:02:07;0.80;;;0.80;;
9080;SDS011;13509;50.760;6.080;2022-10-16T02:04:38;2.83;;;1.00;;
9080;SDS011;13509;50.760;6.080;2022-10-16T02:07:07;1.00;;;0.90;;
9080;SDS011;13509;50.760;6.080;2022-10-16T02:09:35;2.67;;;0.90;;
9080;SDS011;13509;50.760;6.080;2022-10-16T02:12:06;1.57;;;1.10;;
9080;SDS011;13509;50.760;6.080;2022-10-16T02:14:38;1.73;;;0.90;;
9080;SDS011;13509;50.760;6.080;2022-10-16T02:17:10;1.00;;;0.90;;
9080;SDS011;13509;50.760;6.080;2022-10-16T02:19:38;0.90;;;0.90;;
9080;SDS011;13509;50.760;6.080;2022-10-16T02:22:07;3.37;;;1.10;;
9080;SDS011;13509;50.760;6.080;2022-10-16T02:24:37;2.80;;;1.00;;
9080;SDS011;13509;50.760;6.080;2022-10-16T02:27:07;0.90;;;0.90;;
9080;SDS011;13509;50.760;6.080;2022-10-16T02:29:38;2.50;;;1.10;;
9080;SDS011;13509;50.760;6.080;2022-10-16T02:32:10;1.00;;;1.00;;
9080;SDS011;13509;50.760;6.080;2022-10-16T02:34:40;1.33;;;1.20;;
9080;SDS011;13509;50.760;6.080;2022-10-16T02:37:09;0.90;;;0.90;;
9080;SDS011;13509;50.760;6.080;2022-10-16T02:39:37;2.10;;;1.00;;
9080;SDS011;13509;50.760;6.080;2022-10-16T02:42:09;1.13;;;1.03;;
9080;SDS011;13509;50.760;6.080;2022-10-16T02:44:39;2.20;;;1.10;;
9080;SDS011;13509;50.760;6.080;2022-10-16T02:47:07;1.80;;;1.07;;
9080;SDS011;13509;50.760;6.080;2022-10-16T02:49:40;2.60;;;1.10;;
9080;SDS011;13509;50.760;6.080;2022-10-16T02:52:08;2.77;;;1.23;;
9080;SDS011;13509;50.760;6.080;2022-10-16T02:54:36;1.47;;;1.20;;
9080;SDS011;13509;50.760;6.080;2022-10-16T02:57:05;3.23;;;1.13;;
9080;SDS011;13509;50.760;6.080;2022-10-16T02:59:33;1.23;;;1.13;;
9080;SDS011;13509;50.760;6.080;2022-10-16T03:02:02;1.20;;;1.10;;
9080;SDS011;13509;50.760;6.080;2022-10-16T03:04:30;2.83;;;1.20;;
9080;SDS011;13509;50.760;6.080;2022-10-16T03:06:59;1.73;;;1.30;;
9080;SDS011;13509;50.760;6.080;2022-10-16T03:09:27;7.00;;;1.50;;
9080;SDS011;13509;50.760;6.080;2022-10-16T03:11:55;2.53;;;1.27;;
9080;SDS011;13509;50.760;6.080;2022-10-16T03:14:23;3.53;;;1.40;;
9080;SDS011;13509;50.760;6.080;2022-10-16T03:16:56;2.47;;;1.50;;
9080;SDS011;13509;50.760;6.080;2022-10-16T03:19:26;2.17;;;1.50;;
9080;SDS011;13509;50.760;6.080;2022-10-16T03:21:54;1.60;;;1.50;;
9080;SDS011;13509;50.760;6.080;2022-10-16T03:24:22;1.50;;;1.40;;
9080;SDS011;13509;50.760;6.080;2022-10-16T03:26:50;1.47;;;1.37;;
9080;SDS011;13509;50.760;6.080;2022-10-16T03:29:18;1.40;;;1.27;;
9080;SDS011;13509;50.760;6.080;2022-10-16T03:31:46;3.30;;;1.17;;
9080;SDS011;13509;50.760;6.080;2022-10-16T03:34:15;4.73;;;1.50;;
9080;SDS011;13509;50.760;6.080;2022-10-16T03:36:45;1.37;;;1.20;;
9080;SDS011;13509;50.760;6.080;2022-10-16T03:39:13;1.53;;;1.23;;
9080;SDS011;13509;50.760;6.080;2022-10-16T03:41:41;1.30;;;1.20;;
9080;SDS011;13509;50.760;6.080;2022-10-16T03:44:09;2.00;;;1.30;;
9080;SDS011;13509;50.760;6.080;2022-10-16T03:46:37;2.27;;;1.37;;
9080;SDS011;13509;50.760;6.080;2022-10-16T03:49:06;3.13;;;1.73;;
9080;SDS011;13509;50.760;6.080;2022-10-16T03:51:35;1.73;;;1.47;;
9080;SDS011;13509;50.760;6.080;2022-10-16T03:54:05;2.63;;;1.50;;
9080;SDS011;13509;50.760;6.080;2022-10-16T03:56:33;3.60;;;1.40;;
9080;SDS011;13509;50.760;6.080;2022-10-16T03:59:01;3.60;;;1.67;;
9080;SDS011;13509;50.760;6.080;2022-10-16T04:01:29;3.90;;;1.53;;
9080;SDS011;13509;50.760;6.080;2022-10-16T04:03:57;1.77;;;1.40;;
9080;SDS011;13509;50.760;6.080;2022-10-16T04:06:25;2.70;;;1.30;;
9080;SDS011;13509;50.760;6.080;2022-10-16T04:08:54;3.40;;;1.57;;
9080;SDS011;13509;50.760;6.080;2022-10-16T04:11:23;2.17;;;1.43;;
9080;SDS011;13509;50.760;6.080;2022-10-16T04:13:51;2.30;;;1.47;;
9080;SDS011;13509;50.760;6.080;2022-10-16T04:16:19;3.00;;;1.50;;
9080;SDS011;13509;50.760;6.080;2022-10-16T04:18:48;3.33;;;1.40;;
9080;SDS011;13509;50.760;6.080;2022-10-16T04:21:16;7.13;;;1.60;;
9080;SDS011;13509;50.760;6.080;2022-10-16T04:23:44;1.80;;;1.50;;
9080;SDS011;13509;50.760;6.080;2022-10-16T04:26:12;2.37;;;1.40;;
9080;SDS011;13509;50.760;6.080;2022-10-16T04:28:42;3.23;;;1.60;;
9080;SDS011;13509;50.760;6.080;2022-10-16T04:31:10;3.13;;;1.50;;
9080;SDS011;13509;50.760;6.080;2022-10-16T04:33:38;2.17;;;1.40;;
9080;SDS011;13509;50.760;6.080;2022-10-16T04:36:07;1.57;;;1.47;;
9080;SDS011;13509;50.760;6.080;2022-10-16T04:38:35;2.27;;;1.40;;
9080;SDS011;13509;50.760;6.080;2022-10-16T04:41:03;2.17;;;1.43;;
9080;SDS011;13509;50.760;6.080;2022-10-16T04:43:31;2.53;;;1.30;;
9080;SDS011;13509;50.760;6.080;2022-10-16T04:46:01;1.80;;;1.57;;
9080;SDS011;13509;50.760;6.080;2022-10-16T04:48:30;2.03;;;1.70;;
9080;SDS011;13509;50.760;6.080;2022-10-16T04:50:59;1.83;;;1.50;;
9080;SDS011;13509;50.760;6.080;2022-10-16T04:53:27;2.67;;;1.50;;
9080;SDS011;13509;50.760;6.080;2022-10-16T04:55:55;3.57;;;1.90;;
9080;SDS011;13509;50.760;6.080;2022-10-16T04:58:23;2.80;;;1.70;;
9080;SDS011;13509;50.760;6.080;2022-10-16T05:00:51;3.67;;;1.60;;
9080;SDS011;13509;50.760;6.080;2022-10-16T05:03:21;1.93;;;1.60;;
9080;SDS011;13509;50.760;6.080;2022-10-16T05:05:49;4.43;;;1.97;;
9080;SDS011;13509;50.760;6.080;2022-10-16T05:08:17;1.93;;;1.53;;
9080;SDS011;13509;50.760;6.080;2022-10-16T05:10:45;2.57;;;1.80;;
9080;SDS011;13509;50.760;6.080;2022-10-16T05:13:14;4.43;;;1.63;;
9080;SDS011;13509;50.760;6.080;2022-10-16T05:15:42;3.80;;;1.80;;
9080;SDS011;13509;50.760;6.080;2022-10-16T05:18:10;1.90;;;1.63;;
9080;SDS011;13509;50.760;6.080;2022-10-16T05:20:40;2.17;;;1.70;;
9080;SDS011;13509;50.760;6.080;2022-10-16T05:23:08;2.30;;;2.10;;
9080;SDS011;13509;50.760;6.080;2022-10-16T05:25:38;2.10;;;1.70;;
9080;SDS011;13509;50.760;6.080;2022-10-16T05:28:06;4.63;;;2.20;;
9080;SDS011;13509;50.760;6.080;2022-10-16T05:30:36;6.67;;;2.07;;
9080;SDS011;13509;50.760;6.080;2022-10-16T05:33:05;2.60;;;1.73;;
9080;SDS011;13509;50.760;6.080;2022-10-16T05:35:33;7.67;;;1.87;;
9080;SDS011;13509;50.760;6.080;2022-10-16T05:38:03;1.80;;;1.67;;
9080;SDS011;13509;50.760;6.080;2022-10-16T05:40:31;3.60;;;2.10;;
9080;SDS011;13509;50.760;6.080;2022-10-16T05:42:59;3.53;;;1.83;;
9080;SDS011;13509;50.760;6.080;2022-10-16T05:45:27;4.23;;;2.13;;
9080;SDS011;13509;50.760;6.080;2022-10-16T05:47:55;2.33;;;2.13;;
9080;SDS011;13509;50.760;6.080;2022-10-16T05:50:24;4.20;;;1.90;;
9080;SDS011;13509;50.760;6.080;2022-10-16T05:52:52;2.20;;;2.00;;
9080;SDS011;13509;50.760;6.080;2022-10-16T05:55:21;2.83;;;1.93;;
9080;SDS011;13509;50.760;6.080;2022-10-16T05:57:50;2.83;;;1.93;;
9080;SDS011;13509;50.760;6.080;2022-10-16T06:00:18;2.53;;;2.00;;
9080;SDS011;13509;50.760;6.080;2022-10-16T06:02:46;2.97;;;2.27;;
9080;SDS011;13509;50.760;6.080;2022-10-16T06:05:14;3.23;;;2.20;;
9080;SDS011;13509;50.760;6.080;2022-10-16T06:07:42;3.03;;;2.23;;
9080;SDS011;13509;50.760;6.080;2022-10-16T06:10:10;2.80;;;2.20;;
9080;SDS011;13509;50.760;6.080;2022-10-16T06:12:40;4.10;;;2.30;;
9080;SDS011;13509;50.760;6.080;2022-10-16T06:15:08;5.73;;;2.30;;
9080;SDS011;13509;50.760;6.080;2022-10-16T06:17:36;3.20;;;2.10;;
9080;SDS011;13509;50.760;6.080;2022-10-16T06:20:05;4.33;;;1.80;;
9080;SDS011;13509;50.760;6.080;2022-10-16T06:22:33;2.50;;;2.23;;
9080;SDS011;13509;50.760;6.080;2022-10-16T06:25:02;2.57;;;2.07;;
9080;SDS011;13509;50.760;6.080;2022-10-16T06:27:31;3.53;;;2.17;;
9080;SDS011;13509;50.760;6.080;2022-10-16T06:30:00;5.23;;;2.10;;
9080;SDS011;13509;50.760;6.080;2022-10-16T06:32:29;3.03;;;1.83;;
9080;SDS011;13509;50.760;6.080;2022-10-16T06:34:58;2.40;;;2.20;;
9080;SDS011;13509;50.760;6.080;2022-10-16T06:37:26;2.57;;;1.77;;
9080;SDS011;13509;50.760;6.080;2022-10-16T06:39:55;2.50;;;1.90;;
9080;SDS011;13509;50.760;6.080;2022-10-16T06:42:23;2.60;;;2.30;;
9080;SDS011;13509;50.760;6.080;2022-10-16T06:44:51;1.90;;;1.73;;
9080;SDS011;13509;50.760;6.080;2022-10-16T06:47:21;5.07;;;1.87;;
9080;SDS011;13509;50.760;6.080;2022-10-16T06:49:49;4.00;;;2.03;;
9080;SDS011;13509;50.760;6.080;2022-10-16T06:52:19;4.77;;;1.70;;
9080;SDS011;13509;50.760;6.080;2022-10-16T06:54:47;3.93;;;1.60;;
9080;SDS011;13509;50.760;6.080;2022-10-16T06:57:16;1.87;;;1.40;;
9080;SDS011;13509;50.760;6.080;2022-10-16T06:59:44;3.70;;;1.73;;
9080;SDS011;13509;50.760;6.080;2022-10-16T07:02:13;4.60;;;1.60;;
9080;SDS011;13509;50.760;6.080;2022-10-16T07:04:43;1.70;;;1.50;;
9080;SDS011;13509;50.760;6.080;2022-10-16T07:07:11;1.40;;;1.30;;
9080;SDS011;13509;50.760;6.080;2022-10-16T07:09:39;2.43;;;1.40;;
9080;SDS011;13509;50.760;6.080;2022-10-16T07:12:08;1.83;;;1.30;;
9080;SDS011;13509;50.760;6.080;2022-10-16T07:14:36;1.47;;;1.37;;
9080;SDS011;13509;50.760;6.080;2022-10-16T07:17:04;3.40;;;1.47;;
9080;SDS011;13509;50.760;6.080;2022-10-16T07:19:32;3.30;;;1.37;;
9080;SDS011;13509;50.760;6.080;2022-10-16T07:22:02;1.67;;;1.50;;
9080;SDS011;13509;50.760;6.080;2022-10-16T07:24:30;2.13;;;1.53;;
9080;SDS011;13509;50.760;6.080;2022-10-16T07:26:59;3.23;;;1.63;;
9080;SDS011;13509;50.760;6.080;2022-10-16T07:29:27;3.87;;;1.57;;
9080;SDS011;13509;50.760;6.080;2022-10-16T07:31:55;3.23;;;1.63;;
9080;SDS011;13509;50.760;6.080;2022-10-16T07:34:23;2.97;;;1.30;;
9080;SDS011;13509;50.760;6.080;2022-10-16T07:36:52;2.30;;;1.30;;
9080;SDS011;13509;50.760;6.080;2022-10-16T07:39:22;3.23;;;1.40;;
9080;SDS011;13509;50.760;6.080;2022-10-16T07:41:50;3.03;;;1.50;;
9080;SDS011;13509;50.760;6.080;2022-10-16T07:44:18;4.33;;;1.50;;
9080;SDS011;13509;50.760;6.080;2022-10-16T07:46:46;3.97;;;1.40;;
9080;SDS011;13509;50.760;6.080;2022-10-16T07:49:14;3.67;;;1.50;;
9080;SDS011;13509;50.760;6.080;2022-10-16T07:51:42;1.73;;;1.50;;
9080;SDS011;13509;50.760;6.080;2022-10-16T07:54:11;4.80;;;1.30;;
9080;SDS011;13509;50.760;6.080;2022-10-16T07:56:42;1.90;;;1.20;;
9080;SDS011;13509;50.760;6.080;2022-10-16T07:59:14;1.80;;;1.33;;
9080;SDS011;13509;50.760;6.080;2022-10-16T08:01:42;1.40;;;1.30;;
9080;SDS011;13509;50.760;6.080;2022-10-16T08:04:11;5.43;;;1.57;;
9080;SDS011;13509;50.760;6.080;2022-10-16T08:06:39;2.80;;;1.30;;
9080;SDS011;13509;50.760;6.080;2022-10-16T08:09:08;2.17;;;1.40;;
9080;SDS011;13509;50.760;6.080;2022-10-16T08:11:36;2.10;;;1.20;;
9080;SDS011;13509;50.760;6.080;2022-10-16T08:14:06;1.10;;;1.00;;
9080;SDS011;13509;50.760;6.080;2022-10-16T08:16:34;2.57;;;1.10;;
9080;SDS011;13509;50.760;6.080;2022-10-16T08:19:02;1.20;;;1.10;;
9080;SDS011;13509;50.760;6.080;2022-10-16T08:21:30;1.67;;;1.27;;
9080;SDS011;13509;50.760;6.080;2022-10-16T08:23:58;2.13;;;1.07;;
9080;SDS011;13509;50.760;6.080;2022-10-16T08:26:27;3.00;;;1.00;;
9080;SDS011;13509;50.760;6.080;2022-10-16T08:28:55;1.57;;;1.10;;
9080;SDS011;13509;50.760;6.080;2022-10-16T08:31:25;3.30;;;1.10;;
9080;SDS011;13509;50.760;6.080;2022-10-16T08:33:53;1.23;;;1.00;;
9080;SDS011;13509;50.760;6.080;2022-10-16T08:36:21;2.47;;;0.90;;
9080;SDS011;13509;50.760;6.080;2022-10-16T08:38:49;1.13;;;0.80;;
9080;SDS011;13509;50.760;6.080;2022-10-16T08:41:27;2.50;;;1.00;;
9080;SDS011;13509;50.760;6.080;2022-10-16T08:44:03;1.80;;;1.10;;
9080;SDS011;13509;50.760;6.080;2022-10-16T08:46:38;2.17;;;1.00;;
9080;SDS011;13509;50.760;6.080;2022-10-16T08:49:15;2.67;;;0.93;;
9080;SDS011;13509;50.760;6.080;2022-10-16T08:51:44;5.67;;;1.20;;
9080;SDS011;13509;50.760;6.080;2022-10-16T08:54:19;2.50;;;1.10;;
9080;SDS011;13509;50.760;6.080;2022-10-16T08:56:49;1.90;;;1.10;;
9080;SDS011;13509;50.760;6.080;2022-10-16T08:59:17;1.23;;;0.80;;
9080;SDS011;13509;50.760;6.080;2022-10-16T09:01:49;2.20;;;1.00;;
9080;SDS011;13509;50.760;6.080;2022-10-16T09:04:33;1.20;;;0.80;;
9080;SDS011;13509;50.760;6.080;2022-10-16T09:07:09;3.13;;;0.87;;
9080;SDS011;13509;50.760;6.080;2022-10-16T09:09:43;1.60;;;0.93;;
9080;SDS011;13509;50.760;6.080;2022-10-16T09:12:19;2.80;;;1.23;;
9080;SDS011;13509;50.760;6.080;2022-10-16T09:14:50;2.47;;;0.80;;
9080;SDS011;13509;50.760;6.080;2022-10-16T09:17:26;2.00;;;0.90;;
9080;SDS011;13509;50.760;6.080;2022-10-16T09:19:58;1.53;;;0.80;;
9080;SDS011;13509;50.760;6.080;2022-10-16T09:22:28;0.93;;;0.63;;
9080;SDS011;13509;50.760;6.080;2022-10-16T09:24:57;1.87;;;0.70;;
9080;SDS011;13509;50.760;6.080;2022-10-16T09:27:27;1.10;;;0.60;;
9080;SDS011;13509;50.760;6.080;2022-10-16T09:29:55;1.57;;;0.70;;
9080;SDS011;13509;50.760;6.080;2022-10-16T09:32:26;1.30;;;0.80;;
9080;SDS011;13509;50.760;6.080;2022-10-16T09:34:56;4.47;;;1.10;;
9080;SDS011;13509;50.760;6.080;2022-10-16T09:37:24;1.67;;;0.90;;
9080;SDS011;13509;50.760;6.080;2022-10-16T09:39:54;1.50;;;0.80;;
9080;SDS011;13509;50.760;6.080;2022-10-16T09:42:23;2.20;;;0.80;;
9080;SDS011;13509;50.760;6.080;2022-10-16T09:44:55;3.00;;;0.93;;
9080;SDS011;13509;50.760;6.080;2022-10-16T09:47:25;1.67;;;0.67;;
9080;SDS011;13509;50.760;6.080;2022-10-16T09:49:55;2.07;;;0.90;;
9080;SDS011;13509;50.760;6.080;2022-10-16T09:52:28;2.47;;;0.70;;
9080;SDS011;13509;50.760;6.080;2022-10-16T09:54:57;1.13;;;0.70;;
9080;SDS011;13509;50.760;6.080;2022-10-16T09:57:25;1.90;;;0.60;;
9080;SDS011;13509;50.760;6.080;2022-10-16T09:59:55;3.17;;;0.97;;
9080;SDS011;13509;50.760;6.080;2022-10-16T10:02:27;1.13;;;0.70;;
9080;SDS011;13509;50.760;6.080;2022-10-16T10:04:58;1.73;;;0.70;;
9080;SDS011;13509;50.760;6.080;2022-10-16T10:07:26;1.50;;;0.87;;
9080;SDS011;13509;50.760;6.080;2022-10-16T10:09:56;1.40;;;0.70;;
9080;SDS011;13509;50.760;6.080;2022-10-16T10:12:25;4.17;;;1.23;;
9080;SDS011;13509;50.760;6.080;2022-10-16T10:14:54;2.13;;;0.70;;
9080;SDS011;13509;50.760;6.080;2022-10-16T10:17:23;1.83;;;0.97;;
9080;SDS011;13509;50.760;6.080;2022-10-16T10:19:52;0.90;;;0.70;;
9080;SDS011;13509;50.760;6.080;2022-10-16T10:22:24;5.33;;;0.90;;
9080;SDS011;13509;50.760;6.080;2022-10-16T10:24:54;1.87;;;0.80;;
9080;SDS011;13509;50.760;6.080;2022-10-16T10:27:24;0.83;;;0.70;;
9080;SDS011;13509;50.760;6.080;2022-10-16T10:29:54;2.83;;;0.83;;
9080;SDS011;13509;50.760;6.080;2022-10-16T10:32:28;1.50;;;0.63;;
9080;SDS011;13509;50.760;6.080;2022-10-16T10:35:02;1.50;;;0.90;;
9080;SDS011;13509;50.760;6.080;2022-10-16T10:37:40;1.27;;;0.70;;
9080;SDS011;13509;50.760;6.080;2022-10-16T10:40:13;3.43;;;0.80;;
9080;SDS011;13509;50.760;6.080;2022-10-16T10:42:44;1.47;;;0.87;;
9080;SDS011;13509;50.760;6.080;2022-10-16T10:45:21;2.47;;;0.97;;
9080;SDS011;13509;50.760;6.080;2022-10-16T10:47:57;1.43;;;0.90;;
9080;SDS011;13509;50.760;6.080;2022-10-16T10:50:30;0.67;;;0.60;;
9080;SDS011;13509;50.760;6.080;2022-10-16T10:53:03;0.97;;;0.60;;
9080;SDS011;13509;50.760;6.080;2022-10-16T10:55:37;2.73;;;0.80;;
9080;SDS011;13509;50.760;6.080;2022-10-16T10:58:14;2.10;;;0.80;;
9080;SDS011;13509;50.760;6.080;2022-10-16T11:00:47;1.53;;;0.90;;
9080;SDS011;13509;50.760;6.080;2022-10-16T11:03:24;0.70;;;0.57;;
9080;SDS011;13509;50.760;6.080;2022-10-16T11:05:55;1.83;;;0.63;;
9080;SDS011;13509;50.760;6.080;2022-10-16T11:08:27;1.60;;;0.70;;
9080;SDS011;13509;50.760;6.080;2022-10-16T11:10:57;1.37;;;0.80;;
9080;SDS011;13509;50.760;6.080;2022-10-16T11:13:28;1.93;;;0.70;;
9080;SDS011;13509;50.760;6.080;2022-10-16T11:15:58;1.17;;;0.70;;
9080;SDS011;13509;50.760;6.080;2022-10-16T11:18:29;2.23;;;0.77;;
9080;SDS011;13509;50.760;6.080;2022-10-16T11:21:00;1.17;;;0.70;;
9080;SDS011;13509;50.760;6.080;2022-10-16T11:23:32;1.30;;;0.80;;
9080;SDS011;13509;50.760;6.080;2022-10-16T11:26:04;1.60;;;0.63;;
9080;SDS011;13509;50.760;6.080;2022-10-16T11:28:34;1.67;;;0.63;;
9080;SDS011;13509;50.760;6.080;2022-10-16T11:31:08;0.87;;;0.67;;
9080;SDS011;13509;50.760;6.080;2022-10-16T11:33:37;2.27;;;0.70;;
9080;SDS011;13509;50.760;6.080;2022-10-16T11:36:09;1.17;;;0.80;;
9080;SDS011;13509;50.760;6.080;2022-10-16T11:38:43;1.23;;;0.60;;
9080;SDS011;13509;50.760;6.080;2022-10-16T11:41:15;2.13;;;0.70;;
9080;SDS011;13509;50.760;6.080;2022-10-16T11:43:46;3.60;;;0.90;;
9080;SDS011;13509;50.760;6.080;2022-10-16T11:46:18;1.40;;;0.90;;
9080;SDS011;13509;50.760;6.080;2022-10-16T11:48:48;1.53;;;0.67;;
9080;SDS011;13509;50.760;6.080;2022-10-16T11:51:19;0.93;;;0.70;;
9080;SDS011;13509;50.760;6.080;2022-10-16T11:53:53;1.80;;;0.80;;
9080;SDS011;13509;50.760;6.080;2022-10-16T11:56:23;2.57;;;1.20;;
9080;SDS011;13509;50.760;6.080;2022-10-16T11:58:54;4.67;;;1.00;;
9080;SDS011;13509;50.760;6.080;2022-10-16T12:01:26;0.93;;;0.70;;
9080;SDS011;13509;50.760;6.080;2022-10-16T12:03:59;3.57;;;1.10;;
9080;SDS011;13509;50.760;6.080;2022-10-16T12:06:31;2.27;;;0.90;;
9080;SDS011;13509;50.760;6.080;2022-10-16T12:09:02;1.67;;;0.70;;
9080;SDS011;13509;50.760;6.080;2022-10-16T12:11:33;2.10;;;0.70;;
9080;SDS011;13509;50.760;6.080;2022-10-16T12:14:05;3.37;;;0.90;;
9080;SDS011;13509;50.760;6.080;2022-10-16T12:16:34;3.17;;;0.73;;
9080;SDS011;13509;50.760;6.080;2022-10-16T12:19:12;0.83;;;0.70;;
9080;SDS011;13509;50.760;6.080;2022-10-16T12:21:40;1.20;;;0.80;;
9080;SDS011;13509;50.760;6.080;2022-10-16T12:24:20;1.60;;;0.70;;
9080;SDS011;13509;50.760;6.080;2022-10-16T12:26:49;1.43;;;0.80;;
9080;SDS011;13509;50.760;6.080;2022-10-16T12:29:21;2.37;;;0.80;;
9080;SDS011;13509;50.760;6.080;2022-10-16T12:31:51;1.17;;;0.77;;
9080;SDS011;13509;50.760;6.080;2022-10-16T12:34:26;0.80;;;0.70;;
9080;SDS011;13509;50.760;6.080;2022-10-16T12:36:55;3.20;;;0.90;;
9080;SDS011;13509;50.760;6.080;2022-10-16T12:39:27;1.80;;;0.80;;
9080;SDS011;13509;50.760;6.080;2022-10-16T12:42:02;2.10;;;0.70;;
9080;SDS011;13509;50.760;6.080;2022-10-16T12:44:31;0.80;;;0.67;;
9080;SDS011;13509;50.760;6.080;2022-10-16T12:47:00;2.73;;;0.77;;
9080;SDS011;13509;50.760;6.080;2022-10-16T12:49:30;1.40;;;0.60;;
9080;SDS011;13509;50.760;6.080;2022-10-16T12:51:59;0.80;;;0.80;;
9080;SDS011;13509;50.760;6.080;2022-10-16T12:54:29;0.87;;;0.50;;
9080;SDS011;13509;50.760;6.080;2022-10-16T12:57:04;4.03;;;1.03;;
9080;SDS011;13509;50.760;6.080;2022-10-16T12:59:38;1.70;;;0.83;;
9080;SDS011;13509;50.760;6.080;2022-10-16T13:02:16;3.70;;;0.70;;
9080;SDS011;13509;50.760;6.080;2022-10-16T13:05:02;0.60;;;0.60;;
9080;SDS011;13509;50.760;6.080;2022-10-16T13:07:38;3.17;;;0.73;;
9080;SDS011;13509;50.760;6.080;2022-10-16T13:10:13;6.40;;;0.83;;
9080;SDS011;13509;50.760;6.080;2022-10-16T13:15:32;0.50;;;0.50;;
9080;SDS011;13509;50.760;6.080;2022-10-16T13:18:04;4.57;;;0.77;;
9080;SDS011;13509;50.760;6.080;2022-10-16T13:20:34;0.93;;;0.77;;
9080;SDS011;13509;50.760;6.080;2022-10-16T13:23:06;3.33;;;0.70;;
9080;SDS011;13509;50.760;6.080;2022-10-16T13:25:41;2.43;;;0.70;;
9080;SDS011;13509;50.760;6.080;2022-10-16T13:28:13;0.73;;;0.70;;
9080;SDS011;13509;50.760;6.080;2022-10-16T13:30:42;1.63;;;0.77;;
9080;SDS011;13509;50.760;6.080;2022-10-16T13:33:13;2.80;;;0.80;;
9080;SDS011;13509;50.760;6.080;2022-10-16T13:35:46;3.17;;;1.10;;
9080;SDS011;13509;50.760;6.080;2022-10-16T13:38:16;2.37;;;0.90;;
9080;SDS011;13509;50.760;6.080;2022-10-16T13:40:53;1.00;;;0.70;;
9080;SDS011;13509;50.760;6.080;2022-10-16T13:43:22;1.43;;;0.70;;
9080;SDS011;13509;50.760;6.080;2022-10-16T13:45:58;1.00;;;0.90;;
9080;SDS011;13509;50.760;6.080;2022-10-16T13:48:28;5.73;;;0.90;;
9080;SDS011;13509;50.760;6.080;2022-10-16T13:51:04;2.17;;;0.63;;
9080;SDS011;13509;50.760;6.080;2022-10-16T13:53:32;2.20;;;0.70;;
9080;SDS011;13509;50.760;6.080;2022-10-16T13:56:04;4.00;;;0.90;;
9080;SDS011;13509;50.760;6.080;2022-10-16T13:58:33;3.00;;;0.70;;
9080;SDS011;13509;50.760;6.080;2022-10-16T14:01:02;2.43;;;0.70;;
9080;SDS011;13509;50.760;6.080;2022-10-16T14:03:32;1.50;;;0.80;;
9080;SDS011;13509;50.760;6.080;2022-10-16T14:06:03;1.80;;;1.00;;
9080;SDS011;13509;50.760;6.080;2022-10-16T14:08:32;2.00;;;0.60;;
9080;SDS011;13509;50.760;6.080;2022-10-16T14:11:00;2.07;;;0.70;;
9080;SDS011;13509;50.760;6.080;2022-10-16T14:13:34;2.37;;;0.60;;
9080;SDS011;13509;50.760;6.080;2022-10-16T14:16:05;0.70;;;0.70;;
9080;SDS011;13509;50.760;6.080;2022-10-16T14:18:34;0.77;;;0.53;;
9080;SDS011;13509;50.760;6.080;2022-10-16T14:21:03;0.80;;;0.60;;
9080;SDS011;13509;50.760;6.080;2022-10-16T14:23:33;2.20;;;0.80;;
9080;SDS011;13509;50.760;6.080;2022-10-16T14:26:15;2.53;;;1.03;;
9080;SDS011;13509;50.760;6.080;2022-10-16T14:28:45;1.57;;;0.97;;
9080;SDS011;13509;50.760;6.080;2022-10-16T14:31:24;1.23;;;0.80;;
9080;SDS011;13509;50.760;6.080;2022-10-16T14:33:53;2.37;;;0.70;;
9080;SDS011;13509;50.760;6.080;2022-10-16T14:36:21;0.90;;;0.60;;
9080;SDS011;13509;50.760;6.080;2022-10-16T14:38:53;1.60;;;0.90;;
9080;SDS011;13509;50.760;6.080;2022-10-16T14:41:23;1.10;;;0.73;;
9080;SDS011;13509;50.760;6.080;2022-10-16T14:43:54;0.90;;;0.50;;
9080;SDS011;13509;50.760;6.080;2022-10-16T14:46:27;2.37;;;0.80;;
9080;SDS011;13509;50.760;6.080;2022-10-16T14:48:58;0.93;;;0.70;;
9080;SDS011;13509;50.760;6.080;2022-10-16T14:51:27;0.63;;;0.60;;
9080;SDS011;13509;50.760;6.080;2022-10-16T14:53:56;0.80;;;0.60;;
9080;SDS011;13509;50.760;6.080;2022-10-16T14:56:27;1.50;;;0.53;;
9080;SDS011;13509;50.760;6.080;2022-10-16T14:59:00;0.70;;;0.70;;
9080;SDS011;13509;50.760;6.080;2022-10-16T15:01:28;1.20;;;0.73;;
9080;SDS011;13509;50.760;6.080;2022-10-16T15:03:56;0.40;;;0.40;;
9080;SDS011;13509;50.760;6.080;2022-10-16T15:06:25;1.60;;;0.57;;
9080;SDS011;13509;50.760;6.080;2022-10-16T15:08:53;0.60;;;0.60;;
9080;SDS011;13509;50.760;6.080;2022-10-16T15:11:21;1.63;;;0.80;;
9080;SDS011;13509;50.760;6.080;2022-10-16T15:13:52;0.83;;;0.83;;
9080;SDS011;13509;50.760;6.080;2022-10-16T15:16:22;1.57;;;0.93;;
9080;SDS011;13509;50.760;6.080;2022-10-16T15:18:50;1.33;;;1.00;;
9080;SDS011;13509;50.760;6.080;2022-10-16T15:21:20;4.40;;;1.00;;